sensor_id;sensor_type;location;lat;lon;timestamp;temperature;humidity
40287;DHT22;25998;46.604;13.610;2023-10-13T00:01:52;14.60;99.90
40287;DHT22;25998;46.604;13.610;2023-10-13T00:05:03;14.60;99.90
40287;DHT22;25998;46.604;13.610;2023-10-13T00:08:14;14.50;99.90
40287;DHT22;25998;46.604;13.610;2023-10-13T00:11:25;14.30;99.90
40287;DHT22;25998;46.604;13.610;2023-10-13T00:14:37;14.40;99.90
40287;DHT22;25998;46.604;13.610;2023-10-13T00:17:48;14.40;99.90
40287;DHT22;25998;46.604;13.610;2023-10-13T00:21:02;14.20;99.90
40287;DHT22;25998;46.604;13.610;2023-10-13T00:24:23;14.10;99.90
40287;DHT22;25998;46.604;13.610;2023-10-13T00:27:40;14.00;99.90
40287;DHT22;25998;46.604;13.610;2023-10-13T00:30:53;14.00;99.90
40287;DHT22;25998;46.604;13.610;2023-10-13T00:34:11;14.00;99.90
40287;DHT22;25998;46.604;13.610;2023-10-13T00:37:22;13.90;99.90
40287;DHT22;25998;46.604;13.610;2023-10-13T00:40:43;13.90;99.90
40287;DHT22;25998;46.604;13.610;2023-10-13T00:44:03;13.80;99.90
40287;DHT22;25998;46.604;13.610;2023-10-13T00:47:21;13.80;99.90
40287;DHT22;25998;46.604;13.610;2023-10-13T00:50:47;13.80;99.90
40287;DHT22;25998;46.604;13.610;2023-10-13T00:54:02;13.70;99.90
40287;DHT22;25998;46.604;13.610;2023-10-13T00:57:17;13.60;99.90
40287;DHT22;25998;46.604;13.610;2023-10-13T01:00:38;13.60;99.90
40287;DHT22;25998;46.604;13.610;2023-10-13T01:03:58;13.60;99.90
40287;DHT22;25998;46.604;13.610;2023-10-13T01:07:14;13.50;99.90
40287;DHT22;25998;46.604;13.610;2023-10-13T01:10:26;13.50;99.90
40287;DHT22;25998;46.604;13.610;2023-10-13T01:13:38;13.60;99.90
40287;DHT22;25998;46.604;13.610;2023-10-13T01:16:49;13.80;99.90
40287;DHT22;25998;46.604;13.610;2023-10-13T01:20:06;14.00;99.90
40287;DHT22;25998;46.604;13.610;2023-10-13T01:23:18;13.90;99.90
40287;DHT22;25998;46.604;13.610;2023-10-13T01:26:29;13.60;99.90
40287;DHT22;25998;46.604;13.610;2023-10-13T01:29:40;13.50;99.90
40287;DHT22;25998;46.604;13.610;2023-10-13T01:32:52;13.40;99.90
40287;DHT22;25998;46.604;13.610;2023-10-13T01:36:04;13.30;99.90
40287;DHT22;25998;46.604;13.610;2023-10-13T01:39:22;13.30;99.90
40287;DHT22;25998;46.604;13.610;2023-10-13T01:42:37;13.30;99.90
40287;DHT22;25998;46.604;13.610;2023-10-13T01:45:49;13.30;99.90
40287;DHT22;25998;46.604;13.610;2023-10-13T01:49:00;13.30;99.90
40287;DHT22;25998;46.604;13.610;2023-10-13T01:52:10;13.30;99.90
40287;DHT22;25998;46.604;13.610;2023-10-13T01:55:22;13.30;99.90
40287;DHT22;25998;46.604;13.610;2023-10-13T01:58:33;13.50;99.90
40287;DHT22;25998;46.604;13.610;2023-10-13T02:01:44;13.60;99.90
40287;DHT22;25998;46.604;13.610;2023-10-13T02:04:55;13.80;99.90
40287;DHT22;25998;46.604;13.610;2023-10-13T02:08:08;14.00;99.90
40287;DHT22;25998;46.604;13.610;2023-10-13T02:11:21;13.80;99.90
40287;DHT22;25998;46.604;13.610;2023-10-13T02:14:32;13.50;99.90
40287;DHT22;25998;46.604;13.610;2023-10-13T02:17:43;13.30;99.90
40287;DHT22;25998;46.604;13.610;2023-10-13T02:20:56;13.20;99.90
40287;DHT22;25998;46.604;13.610;2023-10-13T02:24:14;13.20;99.90
40287;DHT22;25998;46.604;13.610;2023-10-13T02:27:28;13.20;99.90
40287;DHT22;25998;46.604;13.610;2023-10-13T02:30:40;13.10;99.90
40287;DHT22;25998;46.604;13.610;2023-10-13T02:33:55;13.00;99.90
40287;DHT22;25998;46.604;13.610;2023-10-13T02:37:06;13.00;99.90
40287;DHT22;25998;46.604;13.610;2023-10-13T02:40:20;13.00;99.90
40287;DHT22;25998;46.604;13.610;2023-10-13T02:43:34;13.00;99.90
40287;DHT22;25998;46.604;13.610;2023-10-13T02:46:46;13.00;99.90
40287;DHT22;25998;46.604;13.610;2023-10-13T02:50:00;13.10;99.90
40287;DHT22;25998;46.604;13.610;2023-10-13T02:53:11;13.20;99.90
40287;DHT22;25998;46.604;13.610;2023-10-13T02:56:29;13.50;99.90
40287;DHT22;25998;46.604;13.610;2023-10-13T02:59:41;13.60;99.90
40287;DHT22;25998;46.604;13.610;2023-10-13T03:02:57;13.30;99.90
40287;DHT22;25998;46.604;13.610;2023-10-13T03:06:11;13.10;99.90
40287;DHT22;25998;46.604;13.610;2023-10-13T03:09:22;13.10;99.90
40287;DHT22;25998;46.604;13.610;2023-10-13T03:12:33;13.10;99.90
40287;DHT22;25998;46.604;13.610;2023-10-13T03:15:44;13.00;99.90
40287;DHT22;25998;46.604;13.610;2023-10-13T03:18:58;13.00;99.90
40287;DHT22;25998;46.604;13.610;2023-10-13T03:22:10;13.00;99.90
40287;DHT22;25998;46.604;13.610;2023-10-13T03:25:26;13.10;99.90
40287;DHT22;25998;46.604;13.610;2023-10-13T03:28:40;13.30;99.90
40287;DHT22;25998;46.604;13.610;2023-10-13T03:31:51;13.20;99.90
40287;DHT22;25998;46.604;13.610;2023-10-13T03:35:17;13.00;99.90
40287;DHT22;25998;46.604;13.610;2023-10-13T03:38:35;12.90;99.90
40287;DHT22;25998;46.604;13.610;2023-10-13T03:41:47;12.80;99.90
40287;DHT22;25998;46.604;13.610;2023-10-13T03:45:04;12.80;99.90
40287;DHT22;25998;46.604;13.610;2023-10-13T03:48:21;12.70;99.90
40287;DHT22;25998;46.604;13.610;2023-10-13T03:51:38;12.70;99.90
40287;DHT22;25998;46.604;13.610;2023-10-13T03:54:49;12.60;99.90
40287;DHT22;25998;46.604;13.610;2023-10-13T03:58:02;12.60;99.90
40287;DHT22;25998;46.604;13.610;2023-10-13T04:01:13;12.70;99.90
40287;DHT22;25998;46.604;13.610;2023-10-13T04:04:27;12.90;99.90
40287;DHT22;25998;46.604;13.610;2023-10-13T04:08:02;13.10;99.90
40287;DHT22;25998;46.604;13.610;2023-10-13T04:11:32;13.20;99.90
40287;DHT22;25998;46.604;13.610;2023-10-13T04:15:03;13.20;99.90
40287;DHT22;25998;46.604;13.610;2023-10-13T04:18:17;13.10;99.90
40287;DHT22;25998;46.604;13.610;2023-10-13T04:21:46;12.80;99.90
40287;DHT22;25998;46.604;13.610;2023-10-13T04:25:08;12.70;99.90
40287;DHT22;25998;46.604;13.610;2023-10-13T04:28:39;12.70;99.90
40287;DHT22;25998;46.604;13.610;2023-10-13T04:32:01;12.70;99.90
40287;DHT22;25998;46.604;13.610;2023-10-13T04:35:13;12.80;99.90
40287;DHT22;25998;46.604;13.610;2023-10-13T04:38:24;13.00;99.90
40287;DHT22;25998;46.604;13.610;2023-10-13T04:41:43;13.10;99.90
40287;DHT22;25998;46.604;13.610;2023-10-13T04:45:00;13.20;99.90
40287;DHT22;25998;46.604;13.610;2023-10-13T04:48:26;13.40;99.90
40287;DHT22;25998;46.604;13.610;2023-10-13T04:51:37;13.30;99.90
40287;DHT22;25998;46.604;13.610;2023-10-13T04:55:04;13.10;99.90
40287;DHT22;25998;46.604;13.610;2023-10-13T04:58:47;12.90;99.90
40287;DHT22;25998;46.604;13.610;2023-10-13T05:02:21;12.90;99.90
40287;DHT22;25998;46.604;13.610;2023-10-13T05:05:47;12.80;99.90
40287;DHT22;25998;46.604;13.610;2023-10-13T05:08:58;12.80;99.90
40287;DHT22;25998;46.604;13.610;2023-10-13T05:12:27;12.70;99.90
40287;DHT22;25998;46.604;13.610;2023-10-13T05:15:56;12.70;99.90
40287;DHT22;25998;46.604;13.610;2023-10-13T05:19:26;12.60;99.90
40287;DHT22;25998;46.604;13.610;2023-10-13T05:22:55;12.60;99.90
40287;DHT22;25998;46.604;13.610;2023-10-13T05:26:25;12.50;99.90
40287;DHT22;25998;46.604;13.610;2023-10-13T05:30:05;12.40;99.90
40287;DHT22;25998;46.604;13.610;2023-10-13T05:33:34;12.40;99.90
40287;DHT22;25998;46.604;13.610;2023-10-13T05:37:04;12.40;99.90
40287;DHT22;25998;46.604;13.610;2023-10-13T05:40:34;12.60;99.90
40287;DHT22;25998;46.604;13.610;2023-10-13T05:44:03;12.60;99.90
40287;DHT22;25998;46.604;13.610;2023-10-13T05:47:33;12.50;99.90
40287;DHT22;25998;46.604;13.610;2023-10-13T05:50:52;12.50;99.90
40287;DHT22;25998;46.604;13.610;2023-10-13T05:54:22;12.70;99.90
40287;DHT22;25998;46.604;13.610;2023-10-13T05:57:54;12.80;99.90
40287;DHT22;25998;46.604;13.610;2023-10-13T06:01:23;12.70;99.90
40287;DHT22;25998;46.604;13.610;2023-10-13T06:04:53;12.70;99.90
40287;DHT22;25998;46.604;13.610;2023-10-13T06:08:22;12.80;99.90
40287;DHT22;25998;46.604;13.610;2023-10-13T06:12:08;12.80;99.90
40287;DHT22;25998;46.604;13.610;2023-10-13T06:15:37;12.70;99.90
40287;DHT22;25998;46.604;13.610;2023-10-13T06:19:07;12.80;99.90
40287;DHT22;25998;46.604;13.610;2023-10-13T06:22:36;13.10;99.90
40287;DHT22;25998;46.604;13.610;2023-10-13T06:26:06;13.10;99.90
40287;DHT22;25998;46.604;13.610;2023-10-13T06:29:36;13.00;99.90
40287;DHT22;25998;46.604;13.610;2023-10-13T06:32:47;13.00;99.90
40287;DHT22;25998;46.604;13.610;2023-10-13T06:35:58;12.90;99.90
40287;DHT22;25998;46.604;13.610;2023-10-13T06:39:08;13.00;99.90
40287;DHT22;25998;46.604;13.610;2023-10-13T06:42:53;12.90;99.90
40287;DHT22;25998;46.604;13.610;2023-10-13T06:46:06;13.00;99.90
40287;DHT22;25998;46.604;13.610;2023-10-13T06:49:21;13.00;99.90
40287;DHT22;25998;46.604;13.610;2023-10-13T06:52:36;13.00;99.90
40287;DHT22;25998;46.604;13.610;2023-10-13T06:55:51;13.00;99.90
40287;DHT22;25998;46.604;13.610;2023-10-13T06:59:08;13.20;99.90
40287;DHT22;25998;46.604;13.610;2023-10-13T07:02:19;13.20;99.90
40287;DHT22;25998;46.604;13.610;2023-10-13T07:05:37;13.30;99.90
40287;DHT22;25998;46.604;13.610;2023-10-13T07:08:57;13.30;99.90
40287;DHT22;25998;46.604;13.610;2023-10-13T07:12:07;13.40;99.90
40287;DHT22;25998;46.604;13.610;2023-10-13T07:15:26;13.40;99.90
40287;DHT22;25998;46.604;13.610;2023-10-13T07:18:40;13.50;99.90
40287;DHT22;25998;46.604;13.610;2023-10-13T07:22:01;13.60;99.90
40287;DHT22;25998;46.604;13.610;2023-10-13T07:25:34;13.60;99.90
40287;DHT22;25998;46.604;13.610;2023-10-13T07:28:48;13.80;99.90
40287;DHT22;25998;46.604;13.610;2023-10-13T07:32:03;13.90;99.90
40287;DHT22;25998;46.604;13.610;2023-10-13T07:35:23;14.00;99.90
40287;DHT22;25998;46.604;13.610;2023-10-13T07:38:35;14.20;99.90
40287;DHT22;25998;46.604;13.610;2023-10-13T07:41:49;14.30;99.90
40287;DHT22;25998;46.604;13.610;2023-10-13T07:45:20;14.70;99.90
40287;DHT22;25998;46.604;13.610;2023-10-13T07:48:39;15.10;99.90
40287;DHT22;25998;46.604;13.610;2023-10-13T07:51:57;15.30;99.90
40287;DHT22;25998;46.604;13.610;2023-10-13T07:55:13;15.50;99.90
40287;DHT22;25998;46.604;13.610;2023-10-13T07:58:33;16.00;99.90
40287;DHT22;25998;46.604;13.610;2023-10-13T08:01:46;16.60;99.90
40287;DHT22;25998;46.604;13.610;2023-10-13T08:04:57;17.10;99.90
40287;DHT22;25998;46.604;13.610;2023-10-13T08:08:11;17.80;99.90
40287;DHT22;25998;46.604;13.610;2023-10-13T08:11:27;18.30;99.90
40287;DHT22;25998;46.604;13.610;2023-10-13T08:14:48;18.70;99.90
40287;DHT22;25998;46.604;13.610;2023-10-13T08:18:21;19.00;99.90
40287;DHT22;25998;46.604;13.610;2023-10-13T08:21:55;19.40;99.90
40287;DHT22;25998;46.604;13.610;2023-10-13T08:25:09;19.70;99.90
40287;DHT22;25998;46.604;13.610;2023-10-13T08:28:31;20.10;99.90
40287;DHT22;25998;46.604;13.610;2023-10-13T08:32:04;20.30;99.00
40287;DHT22;25998;46.604;13.610;2023-10-13T08:35:26;20.50;99.60
40287;DHT22;25998;46.604;13.610;2023-10-13T08:38:46;20.90;99.70
40287;DHT22;25998;46.604;13.610;2023-10-13T08:42:02;20.90;98.70
40287;DHT22;25998;46.604;13.610;2023-10-13T08:45:22;21.10;99.20
40287;DHT22;25998;46.604;13.610;2023-10-13T08:48:39;21.00;98.90
40287;DHT22;25998;46.604;13.610;2023-10-13T08:51:52;21.20;98.60
40287;DHT22;25998;46.604;13.610;2023-10-13T08:55:26;21.50;98.30
40287;DHT22;25998;46.604;13.610;2023-10-13T08:58:50;21.60;97.60
40287;DHT22;25998;46.604;13.610;2023-10-13T09:02:11;21.60;97.40
40287;DHT22;25998;46.604;13.610;2023-10-13T09:05:26;21.80;96.90
40287;DHT22;25998;46.604;13.610;2023-10-13T09:09:06;22.10;96.80
40287;DHT22;25998;46.604;13.610;2023-10-13T09:12:23;22.30;95.20
40287;DHT22;25998;46.604;13.610;2023-10-13T09:15:43;22.50;94.70
40287;DHT22;25998;46.604;13.610;2023-10-13T09:19:12;22.70;94.80
40287;DHT22;25998;46.604;13.610;2023-10-13T09:22:27;22.70;95.70
40287;DHT22;25998;46.604;13.610;2023-10-13T09:25:40;22.80;95.50
40287;DHT22;25998;46.604;13.610;2023-10-13T09:29:14;22.70;95.30
40287;DHT22;25998;46.604;13.610;2023-10-13T09:32:28;22.80;96.40
40287;DHT22;25998;46.604;13.610;2023-10-13T09:35:39;23.00;95.40
40287;DHT22;25998;46.604;13.610;2023-10-13T09:38:50;23.30;95.00
40287;DHT22;25998;46.604;13.610;2023-10-13T09:42:22;23.30;94.00
40287;DHT22;25998;46.604;13.610;2023-10-13T09:45:36;23.40;94.30
40287;DHT22;25998;46.604;13.610;2023-10-13T09:48:51;23.50;94.20
40287;DHT22;25998;46.604;13.610;2023-10-13T09:52:25;23.40;94.50
40287;DHT22;25998;46.604;13.610;2023-10-13T09:55:40;23.30;95.70
40287;DHT22;25998;46.604;13.610;2023-10-13T09:59:08;23.40;94.90
40287;DHT22;25998;46.604;13.610;2023-10-13T10:02:21;23.70;95.80
40287;DHT22;25998;46.604;13.610;2023-10-13T10:05:40;23.60;95.10
40287;DHT22;25998;46.604;13.610;2023-10-13T10:08:51;23.60;95.40
40287;DHT22;25998;46.604;13.610;2023-10-13T10:12:59;23.50;95.00
40287;DHT22;25998;46.604;13.610;2023-10-13T10:15:51;23.70;95.30
40287;DHT22;25998;46.604;13.610;2023-10-13T10:19:05;24.00;95.10
40287;DHT22;25998;46.604;13.610;2023-10-13T10:22:28;23.90;94.70
40287;DHT22;25998;46.604;13.610;2023-10-13T10:25:50;23.90;94.20
40287;DHT22;25998;46.604;13.610;2023-10-13T10:29:10;23.90;94.50
40287;DHT22;25998;46.604;13.610;2023-10-13T10:32:31;23.80;93.90
40287;DHT22;25998;46.604;13.610;2023-10-13T10:35:43;23.70;93.90
40287;DHT22;25998;46.604;13.610;2023-10-13T10:38:56;23.70;93.50
40287;DHT22;25998;46.604;13.610;2023-10-13T10:42:14;23.90;92.90
40287;DHT22;25998;46.604;13.610;2023-10-13T10:45:57;24.20;88.90
40287;DHT22;25998;46.604;13.610;2023-10-13T10:49:17;24.60;91.40
40287;DHT22;25998;46.604;13.610;2023-10-13T10:52:49;24.70;91.20
40287;DHT22;25998;46.604;13.610;2023-10-13T10:56:12;24.60;92.40
40287;DHT22;25998;46.604;13.610;2023-10-13T10:59:46;24.90;91.80
40287;DHT22;25998;46.604;13.610;2023-10-13T11:03:02;24.70;89.70
40287;DHT22;25998;46.604;13.610;2023-10-13T11:06:15;24.70;91.10
40287;DHT22;25998;46.604;13.610;2023-10-13T11:09:33;24.80;90.50
40287;DHT22;25998;46.604;13.610;2023-10-13T11:13:00;25.10;90.80
40287;DHT22;25998;46.604;13.610;2023-10-13T11:16:29;25.10;89.80
40287;DHT22;25998;46.604;13.610;2023-10-13T11:19:44;25.00;89.40
40287;DHT22;25998;46.604;13.610;2023-10-13T11:22:55;25.00;88.90
40287;DHT22;25998;46.604;13.610;2023-10-13T11:26:06;25.10;88.90
40287;DHT22;25998;46.604;13.610;2023-10-13T11:29:19;25.10;87.40
40287;DHT22;25998;46.604;13.610;2023-10-13T11:32:34;25.00;89.80
40287;DHT22;25998;46.604;13.610;2023-10-13T11:35:45;25.30;91.00
40287;DHT22;25998;46.604;13.610;2023-10-13T11:39:10;25.60;90.40
40287;DHT22;25998;46.604;13.610;2023-10-13T11:42:30;25.60;91.20
40287;DHT22;25998;46.604;13.610;2023-10-13T11:45:48;25.30;91.30
40287;DHT22;25998;46.604;13.610;2023-10-13T11:49:25;25.10;92.10
40287;DHT22;25998;46.604;13.610;2023-10-13T11:52:43;24.80;92.00
40287;DHT22;25998;46.604;13.610;2023-10-13T11:55:55;24.60;92.30
40287;DHT22;25998;46.604;13.610;2023-10-13T11:59:07;24.60;92.50
40287;DHT22;25998;46.604;13.610;2023-10-13T12:02:31;24.40;93.60
40287;DHT22;25998;46.604;13.610;2023-10-13T12:06:08;24.20;92.00
40287;DHT22;25998;46.604;13.610;2023-10-13T12:09:54;24.40;92.40
40287;DHT22;25998;46.604;13.610;2023-10-13T12:13:19;24.30;92.60
40287;DHT22;25998;46.604;13.610;2023-10-13T12:16:37;24.20;92.50
40287;DHT22;25998;46.604;13.610;2023-10-13T12:20:18;24.20;92.90
40287;DHT22;25998;46.604;13.610;2023-10-13T12:23:53;24.00;92.60
40287;DHT22;25998;46.604;13.610;2023-10-13T12:27:10;24.00;93.30
40287;DHT22;25998;46.604;13.610;2023-10-13T12:30:30;24.10;93.30
40287;DHT22;25998;46.604;13.610;2023-10-13T12:33:59;24.00;92.90
40287;DHT22;25998;46.604;13.610;2023-10-13T12:37:29;24.00;92.90
40287;DHT22;25998;46.604;13.610;2023-10-13T12:40:52;23.90;92.50
40287;DHT22;25998;46.604;13.610;2023-10-13T12:44:29;24.00;92.70
40287;DHT22;25998;46.604;13.610;2023-10-13T12:48:05;24.00;92.70
40287;DHT22;25998;46.604;13.610;2023-10-13T12:51:37;23.90;92.70
40287;DHT22;25998;46.604;13.610;2023-10-13T12:55:03;23.90;92.20
40287;DHT22;25998;46.604;13.610;2023-10-13T12:58:19;23.90;93.00
40287;DHT22;25998;46.604;13.610;2023-10-13T13:01:48;24.00;94.30
40287;DHT22;25998;46.604;13.610;2023-10-13T13:05:04;24.00;93.10
40287;DHT22;25998;46.604;13.610;2023-10-13T13:08:22;24.00;93.10
40287;DHT22;25998;46.604;13.610;2023-10-13T13:11:45;24.00;93.30
40287;DHT22;25998;46.604;13.610;2023-10-13T13:15:04;24.00;93.40
40287;DHT22;25998;46.604;13.610;2023-10-13T13:18:28;24.10;94.10
40287;DHT22;25998;46.604;13.610;2023-10-13T13:21:41;24.20;93.40
40287;DHT22;25998;46.604;13.610;2023-10-13T13:25:04;24.10;94.00
40287;DHT22;25998;46.604;13.610;2023-10-13T13:28:19;24.20;94.30
40287;DHT22;25998;46.604;13.610;2023-10-13T13:31:32;24.20;94.00
40287;DHT22;25998;46.604;13.610;2023-10-13T13:34:51;24.10;93.40
40287;DHT22;25998;46.604;13.610;2023-10-13T13:38:17;24.20;94.30
40287;DHT22;25998;46.604;13.610;2023-10-13T13:41:51;24.20;93.50
40287;DHT22;25998;46.604;13.610;2023-10-13T13:45:22;24.20;94.20
40287;DHT22;25998;46.604;13.610;2023-10-13T13:48:42;24.10;94.50
40287;DHT22;25998;46.604;13.610;2023-10-13T13:51:53;24.10;93.70
40287;DHT22;25998;46.604;13.610;2023-10-13T13:55:07;24.20;93.50
40287;DHT22;25998;46.604;13.610;2023-10-13T13:58:21;24.30;94.00
40287;DHT22;25998;46.604;13.610;2023-10-13T14:01:34;24.40;92.60
40287;DHT22;25998;46.604;13.610;2023-10-13T14:04:48;24.50;93.20
40287;DHT22;25998;46.604;13.610;2023-10-13T14:08:03;24.40;94.30
40287;DHT22;25998;46.604;13.610;2023-10-13T14:11:26;24.30;93.70
40287;DHT22;25998;46.604;13.610;2023-10-13T14:14:49;24.50;94.70
40287;DHT22;25998;46.604;13.610;2023-10-13T14:18:07;24.50;93.10
40287;DHT22;25998;46.604;13.610;2023-10-13T14:21:23;24.30;93.60
40287;DHT22;25998;46.604;13.610;2023-10-13T14:24:37;24.30;93.10
40287;DHT22;25998;46.604;13.610;2023-10-13T14:28:09;24.30;93.50
40287;DHT22;25998;46.604;13.610;2023-10-13T14:31:28;24.20;93.70
40287;DHT22;25998;46.604;13.610;2023-10-13T14:34:40;24.00;93.30
40287;DHT22;25998;46.604;13.610;2023-10-13T14:37:56;23.90;93.60
40287;DHT22;25998;46.604;13.610;2023-10-13T14:41:17;24.00;93.90
40287;DHT22;25998;46.604;13.610;2023-10-13T14:44:28;23.90;93.30
40287;DHT22;25998;46.604;13.610;2023-10-13T14:47:40;23.90;93.70
40287;DHT22;25998;46.604;13.610;2023-10-13T14:50:51;23.90;93.70
40287;DHT22;25998;46.604;13.610;2023-10-13T14:54:02;23.70;93.00
40287;DHT22;25998;46.604;13.610;2023-10-13T14:57:19;23.60;93.10
40287;DHT22;25998;46.604;13.610;2023-10-13T15:00:35;23.60;92.50
40287;DHT22;25998;46.604;13.610;2023-10-13T15:03:48;23.60;93.00
40287;DHT22;25998;46.604;13.610;2023-10-13T15:07:13;23.40;93.00
40287;DHT22;25998;46.604;13.610;2023-10-13T15:10:26;23.30;94.90
40287;DHT22;25998;46.604;13.610;2023-10-13T15:13:40;23.00;96.20
40287;DHT22;25998;46.604;13.610;2023-10-13T15:16:53;22.60;94.90
40287;DHT22;25998;46.604;13.610;2023-10-13T15:20:09;22.70;94.00
40287;DHT22;25998;46.604;13.610;2023-10-13T15:23:21;22.70;94.50
40287;DHT22;25998;46.604;13.610;2023-10-13T15:26:35;22.30;96.90
40287;DHT22;25998;46.604;13.610;2023-10-13T15:29:55;21.90;96.00
40287;DHT22;25998;46.604;13.610;2023-10-13T15:33:14;22.00;94.40
40287;DHT22;25998;46.604;13.610;2023-10-13T15:36:26;22.20;94.60
40287;DHT22;25998;46.604;13.610;2023-10-13T15:39:37;22.10;96.80
40287;DHT22;25998;46.604;13.610;2023-10-13T15:42:50;21.40;97.90
40287;DHT22;25998;46.604;13.610;2023-10-13T15:46:01;21.00;98.60
40287;DHT22;25998;46.604;13.610;2023-10-13T15:49:18;20.70;99.20
40287;DHT22;25998;46.604;13.610;2023-10-13T15:52:29;20.50;99.30
40287;DHT22;25998;46.604;13.610;2023-10-13T15:55:42;20.40;99.70
40287;DHT22;25998;46.604;13.610;2023-10-13T15:58:56;20.30;99.60
40287;DHT22;25998;46.604;13.610;2023-10-13T16:02:07;20.10;99.90
40287;DHT22;25998;46.604;13.610;2023-10-13T16:05:32;20.00;99.90
40287;DHT22;25998;46.604;13.610;2023-10-13T16:08:49;19.70;99.90
40287;DHT22;25998;46.604;13.610;2023-10-13T16:12:02;19.60;99.90
40287;DHT22;25998;46.604;13.610;2023-10-13T16:15:13;19.60;99.90
40287;DHT22;25998;46.604;13.610;2023-10-13T16:18:24;19.40;99.90
40287;DHT22;25998;46.604;13.610;2023-10-13T16:21:35;19.30;99.90
40287;DHT22;25998;46.604;13.610;2023-10-13T16:24:49;19.10;99.90
40287;DHT22;25998;46.604;13.610;2023-10-13T16:28:00;19.10;99.90
40287;DHT22;25998;46.604;13.610;2023-10-13T16:31:11;18.90;99.90
40287;DHT22;25998;46.604;13.610;2023-10-13T16:34:22;18.70;99.90
40287;DHT22;25998;46.604;13.610;2023-10-13T16:37:36;18.60;99.90
40287;DHT22;25998;46.604;13.610;2023-10-13T16:40:51;18.60;99.90
40287;DHT22;25998;46.604;13.610;2023-10-13T16:44:03;18.40;99.90
40287;DHT22;25998;46.604;13.610;2023-10-13T16:47:19;18.20;99.90
40287;DHT22;25998;46.604;13.610;2023-10-13T16:50:32;18.20;99.90
40287;DHT22;25998;46.604;13.610;2023-10-13T16:53:47;18.00;99.90
40287;DHT22;25998;46.604;13.610;2023-10-13T16:57:03;18.10;99.90
40287;DHT22;25998;46.604;13.610;2023-10-13T17:00:14;18.10;99.90
40287;DHT22;25998;46.604;13.610;2023-10-13T17:03:25;17.80;99.90
40287;DHT22;25998;46.604;13.610;2023-10-13T17:06:42;17.70;99.90
40287;DHT22;25998;46.604;13.610;2023-10-13T17:09:53;17.60;99.90
40287;DHT22;25998;46.604;13.610;2023-10-13T17:13:07;17.50;99.90
40287;DHT22;25998;46.604;13.610;2023-10-13T17:16:20;17.40;99.90
40287;DHT22;25998;46.604;13.610;2023-10-13T17:19:32;17.30;99.90
40287;DHT22;25998;46.604;13.610;2023-10-13T17:22:44;17.20;99.90
40287;DHT22;25998;46.604;13.610;2023-10-13T17:25:56;17.00;99.90
40287;DHT22;25998;46.604;13.610;2023-10-13T17:29:07;16.90;99.90
40287;DHT22;25998;46.604;13.610;2023-10-13T17:32:19;16.80;99.90
40287;DHT22;25998;46.604;13.610;2023-10-13T17:35:33;16.90;99.90
40287;DHT22;25998;46.604;13.610;2023-10-13T17:38:44;16.80;99.90
40287;DHT22;25998;46.604;13.610;2023-10-13T17:41:55;16.70;99.90
40287;DHT22;25998;46.604;13.610;2023-10-13T17:45:06;16.70;99.90
40287;DHT22;25998;46.604;13.610;2023-10-13T17:48:20;16.70;99.90
40287;DHT22;25998;46.604;13.610;2023-10-13T17:51:33;16.60;99.90
40287;DHT22;25998;46.604;13.610;2023-10-13T17:54:45;16.50;99.90
40287;DHT22;25998;46.604;13.610;2023-10-13T17:57:57;16.50;99.90
40287;DHT22;25998;46.604;13.610;2023-10-13T18:01:13;16.50;99.90
40287;DHT22;25998;46.604;13.610;2023-10-13T18:04:27;16.50;99.90
40287;DHT22;25998;46.604;13.610;2023-10-13T18:07:39;16.50;99.90
40287;DHT22;25998;46.604;13.610;2023-10-13T18:10:53;16.40;99.90
40287;DHT22;25998;46.604;13.610;2023-10-13T18:14:05;16.40;99.90
40287;DHT22;25998;46.604;13.610;2023-10-13T18:17:16;16.30;99.90
40287;DHT22;25998;46.604;13.610;2023-10-13T18:20:28;16.40;99.90
40287;DHT22;25998;46.604;13.610;2023-10-13T18:23:40;16.30;99.90
40287;DHT22;25998;46.604;13.610;2023-10-13T18:26:51;16.30;99.90
40287;DHT22;25998;46.604;13.610;2023-10-13T18:30:01;16.30;99.90
40287;DHT22;25998;46.604;13.610;2023-10-13T18:33:13;16.30;99.90
40287;DHT22;25998;46.604;13.610;2023-10-13T18:36:26;16.20;99.90
40287;DHT22;25998;46.604;13.610;2023-10-13T18:39:40;16.10;99.90
40287;DHT22;25998;46.604;13.610;2023-10-13T18:42:51;16.10;99.90
40287;DHT22;25998;46.604;13.610;2023-10-13T18:46:02;16.10;99.90
40287;DHT22;25998;46.604;13.610;2023-10-13T18:49:16;16.00;99.90
40287;DHT22;25998;46.604;13.610;2023-10-13T18:52:28;16.00;99.90
40287;DHT22;25998;46.604;13.610;2023-10-13T18:55:39;16.20;99.90
40287;DHT22;25998;46.604;13.610;2023-10-13T18:58:51;16.20;99.90
40287;DHT22;25998;46.604;13.610;2023-10-13T19:02:05;16.10;99.90
40287;DHT22;25998;46.604;13.610;2023-10-13T19:05:18;16.10;99.90
40287;DHT22;25998;46.604;13.610;2023-10-13T19:08:31;16.00;99.90
40287;DHT22;25998;46.604;13.610;2023-10-13T19:11:43;15.90;99.90
40287;DHT22;25998;46.604;13.610;2023-10-13T19:14:56;16.00;99.90
40287;DHT22;25998;46.604;13.610;2023-10-13T19:18:09;16.00;99.90
40287;DHT22;25998;46.604;13.610;2023-10-13T19:21:20;15.90;99.90
40287;DHT22;25998;46.604;13.610;2023-10-13T19:24:31;15.80;99.90
40287;DHT22;25998;46.604;13.610;2023-10-13T19:27:46;15.90;99.90
40287;DHT22;25998;46.604;13.610;2023-10-13T19:30:58;15.80;99.90
40287;DHT22;25998;46.604;13.610;2023-10-13T19:34:09;15.60;99.90
40287;DHT22;25998;46.604;13.610;2023-10-13T19:37:21;15.50;99.90
40287;DHT22;25998;46.604;13.610;2023-10-13T19:40:34;15.40;99.90
40287;DHT22;25998;46.604;13.610;2023-10-13T19:43:50;15.30;99.90
40287;DHT22;25998;46.604;13.610;2023-10-13T19:47:01;15.40;99.90
40287;DHT22;25998;46.604;13.610;2023-10-13T19:50:11;15.30;99.90
40287;DHT22;25998;46.604;13.610;2023-10-13T19:53:29;15.20;99.90
40287;DHT22;25998;46.604;13.610;2023-10-13T19:56:40;15.20;99.90
40287;DHT22;25998;46.604;13.610;2023-10-13T19:59:51;15.10;99.90
40287;DHT22;25998;46.604;13.610;2023-10-13T20:03:03;15.00;99.90
40287;DHT22;25998;46.604;13.610;2023-10-13T20:06:14;15.00;99.90
40287;DHT22;25998;46.604;13.610;2023-10-13T20:09:31;14.90;99.90
40287;DHT22;25998;46.604;13.610;2023-10-13T20:12:42;14.90;99.90
40287;DHT22;25998;46.604;13.610;2023-10-13T20:15:55;15.00;99.90
40287;DHT22;25998;46.604;13.610;2023-10-13T20:19:05;15.00;99.90
40287;DHT22;25998;46.604;13.610;2023-10-13T20:22:16;14.90;99.90
40287;DHT22;25998;46.604;13.610;2023-10-13T20:25:27;14.90;99.90
40287;DHT22;25998;46.604;13.610;2023-10-13T20:28:41;14.80;99.90